createdAt,value
2018-12-18T00:01:06.774Z,7.51
2018-12-18T00:03:39.293Z,7.56
2018-12-18T00:06:06.509Z,7.58
2018-12-18T00:08:35.407Z,7.56
2018-12-18T00:11:04.535Z,7.56
2018-12-18T00:13:34.018Z,7.63
2018-12-18T00:16:04.195Z,7.68
2018-12-18T00:18:33.851Z,7.75
2018-12-18T00:21:02.641Z,7.76
2018-12-18T00:23:31.575Z,7.78
2018-12-18T00:26:00.423Z,7.79
2018-12-18T00:28:29.441Z,7.83
2018-12-18T00:30:58.369Z,7.89
2018-12-18T00:33:27.049Z,7.95
2018-12-18T00:35:55.813Z,7.96
2018-12-18T00:38:24.731Z,8.06
2018-12-18T00:40:53.693Z,8.13
2018-12-18T00:43:22.609Z,8.18
2018-12-18T00:45:51.795Z,8.20
2018-12-18T00:48:20.791Z,8.22
2018-12-18T00:50:49.587Z,8.23
2018-12-18T00:53:18.577Z,8.30
2018-12-18T00:55:53.926Z,8.36
2018-12-18T00:58:22.793Z,8.39
2018-12-18T01:00:51.633Z,8.38
2018-12-18T01:03:20.479Z,8.44
2018-12-18T01:05:49.370Z,8.38
2018-12-18T01:08:18.303Z,8.40
2018-12-18T01:10:47.053Z,8.49
2018-12-18T01:13:16.963Z,8.46
2018-12-18T01:15:45.847Z,8.43
2018-12-18T01:18:14.496Z,8.53
2018-12-18T01:20:43.320Z,8.43
2018-12-18T01:23:12.044Z,8.46
2018-12-18T01:25:40.767Z,8.41
2018-12-18T01:28:09.551Z,8.39
2018-12-18T01:30:38.197Z,8.51
2018-12-18T01:33:06.879Z,8.51
2018-12-18T01:35:35.756Z,8.46
2018-12-18T01:38:04.503Z,8.55
2018-12-18T01:40:33.847Z,8.53
2018-12-18T01:43:02.737Z,8.53
2018-12-18T01:45:31.406Z,8.51
2018-12-18T01:48:00.161Z,8.44
2018-12-18T01:50:29.048Z,8.45
2018-12-18T01:52:57.882Z,8.51
2018-12-18T01:55:26.630Z,8.47
2018-12-18T01:57:55.519Z,8.43
2018-12-18T02:00:24.927Z,8.49
2018-12-18T02:02:53.752Z,8.46
2018-12-18T02:05:22.779Z,8.57
2018-12-18T02:07:51.694Z,8.53
2018-12-18T02:10:20.488Z,8.62
2018-12-18T02:12:49.370Z,8.65
2018-12-18T02:15:18.236Z,8.70
2018-12-18T02:17:47.053Z,8.72
2018-12-18T02:20:15.925Z,8.73
2018-12-18T02:22:44.677Z,8.68
2018-12-18T02:25:13.524Z,8.66
2018-12-18T02:27:42.286Z,8.60
2018-12-18T02:30:11.042Z,8.52
2018-12-18T02:32:39.784Z,8.50
2018-12-18T02:35:08.569Z,8.52
2018-12-18T02:37:37.354Z,8.49
2018-12-18T02:40:06.570Z,8.49
2018-12-18T02:42:35.303Z,8.61
2018-12-18T02:45:04.464Z,8.50
2018-12-18T02:47:33.987Z,8.51
2018-12-18T02:50:02.779Z,8.46
2018-12-18T02:52:32.143Z,8.50
2018-12-18T02:55:00.774Z,8.49
2018-12-18T02:57:29.560Z,8.63
2018-12-18T02:59:58.254Z,8.66
2018-12-18T03:02:26.939Z,8.64
2018-12-18T03:04:55.791Z,8.69
2018-12-18T03:07:24.465Z,8.69
2018-12-18T03:09:53.189Z,8.72
2018-12-18T03:12:22.022Z,8.67
2018-12-18T03:14:50.777Z,8.68
2018-12-18T03:17:19.496Z,8.70
2018-12-18T03:19:48.523Z,8.67
2018-12-18T03:22:17.292Z,8.69
2018-12-18T03:24:46.081Z,8.69
2018-12-18T03:27:14.812Z,8.74
2018-12-18T03:29:43.585Z,8.84
2018-12-18T03:32:16.757Z,8.83
2018-12-18T03:34:45.520Z,8.84
2018-12-18T03:37:14.239Z,8.69
2018-12-18T03:39:43.052Z,8.67
2018-12-18T03:42:11.797Z,8.72
2018-12-18T03:44:40.484Z,8.83
2018-12-18T03:47:09.414Z,8.78
2018-12-18T03:49:38.151Z,8.59
2018-12-18T03:52:06.963Z,8.63
2018-12-18T03:54:36.146Z,8.69
2018-12-18T03:57:04.941Z,8.69
2018-12-18T03:59:34.054Z,8.54
2018-12-18T04:02:02.879Z,8.50
2018-12-18T04:04:35.497Z,8.49
2018-12-18T04:07:02.329Z,8.58
2018-12-18T04:09:31.278Z,8.53
2018-12-18T04:12:05.196Z,8.56
2018-12-18T04:14:34.164Z,8.59
2018-12-18T04:17:02.841Z,8.50
2018-12-18T04:19:31.599Z,8.50
2018-12-18T04:22:00.519Z,8.51
2018-12-18T04:24:29.314Z,8.53
2018-12-18T04:26:58.064Z,8.49
2018-12-18T04:29:26.848Z,8.44
2018-12-18T04:31:55.538Z,8.38
2018-12-18T04:34:24.225Z,8.41
2018-12-18T04:36:53.084Z,8.49
2018-12-18T04:39:22.303Z,8.54
2018-12-18T04:41:51.000Z,8.52
2018-12-18T04:44:19.996Z,8.51
2018-12-18T04:46:48.870Z,8.45
2018-12-18T04:49:17.687Z,8.43
2018-12-18T04:51:46.500Z,8.46
2018-12-18T04:54:15.210Z,8.49
2018-12-18T04:56:43.864Z,8.45
2018-12-18T04:59:12.707Z,8.34
2018-12-18T05:01:41.373Z,8.33
2018-12-18T05:04:10.026Z,8.39
2018-12-18T05:06:38.768Z,8.31
2018-12-18T05:09:09.887Z,8.34
2018-12-18T05:11:38.871Z,8.39
2018-12-18T05:14:07.768Z,8.40
2018-12-18T05:16:36.515Z,8.41
2018-12-18T05:19:06.045Z,8.43
2018-12-18T05:21:34.887Z,8.35
2018-12-18T05:24:03.765Z,8.37
2018-12-18T05:26:32.693Z,8.42
2018-12-18T05:29:01.792Z,8.25
2018-12-18T05:31:30.581Z,8.16
2018-12-18T05:33:59.268Z,8.22
2018-12-18T05:36:28.017Z,8.22
2018-12-18T05:38:56.877Z,8.25
2018-12-18T05:41:25.563Z,8.14
2018-12-18T05:43:54.540Z,8.16
2018-12-18T05:46:23.231Z,8.15
2018-12-18T05:48:52.106Z,8.21
2018-12-18T05:51:20.878Z,8.24
2018-12-18T05:53:49.645Z,8.22
2018-12-18T05:56:18.398Z,8.27
2018-12-18T05:58:47.228Z,8.30
2018-12-18T06:01:16.134Z,8.31
2018-12-18T06:03:44.857Z,8.37
2018-12-18T06:06:13.774Z,8.41
2018-12-18T06:08:42.512Z,8.29
2018-12-18T06:11:11.225Z,8.30
2018-12-18T06:13:40.143Z,8.30
2018-12-18T06:16:08.981Z,8.32
2018-12-18T06:18:37.732Z,8.33
2018-12-18T06:21:06.748Z,8.21
2018-12-18T06:23:36.145Z,8.31
2018-12-18T06:26:06.343Z,8.29
2018-12-18T06:28:36.213Z,8.24
2018-12-18T06:31:05.099Z,8.28
2018-12-18T06:33:33.904Z,8.32
2018-12-18T06:36:02.857Z,8.32
2018-12-18T06:38:31.643Z,8.32
2018-12-18T06:41:00.456Z,8.38
2018-12-18T06:43:29.222Z,8.37
2018-12-18T06:45:58.041Z,8.21
2018-12-18T06:48:26.768Z,8.19
2018-12-18T06:50:55.560Z,8.26
2018-12-18T06:53:24.581Z,8.40
2018-12-18T06:55:53.339Z,8.31
2018-12-18T06:58:22.235Z,8.39
2018-12-18T07:00:50.987Z,8.52
2018-12-18T07:03:19.768Z,8.49
2018-12-18T07:05:48.632Z,8.53
2018-12-18T07:08:17.414Z,8.55
2018-12-18T07:10:46.128Z,8.52
2018-12-18T07:13:15.013Z,8.56
2018-12-18T07:15:43.735Z,8.63
2018-12-18T07:18:12.541Z,8.63
2018-12-18T07:20:41.731Z,8.60
2018-12-18T07:23:10.516Z,8.69
2018-12-18T07:25:39.201Z,8.70
2018-12-18T07:28:08.447Z,8.77
2018-12-18T07:30:37.469Z,8.70
2018-12-18T07:33:06.321Z,8.67
2018-12-18T07:35:35.113Z,8.65
2018-12-18T07:38:04.808Z,8.70
2018-12-18T07:40:33.846Z,8.62
2018-12-18T07:43:04.290Z,8.64
2018-12-18T07:45:33.097Z,8.65
2018-12-18T07:48:01.908Z,8.75
2018-12-18T07:50:30.696Z,8.85
2018-12-18T07:52:59.474Z,8.80
2018-12-18T07:55:28.966Z,8.73
2018-12-18T07:57:57.818Z,8.77
2018-12-18T08:00:26.575Z,8.71
2018-12-18T08:02:55.503Z,8.61
2018-12-18T08:05:29.869Z,8.67
2018-12-18T08:07:55.284Z,8.57
2018-12-18T08:10:24.267Z,8.69
2018-12-18T08:12:53.245Z,8.64
2018-12-18T08:15:21.952Z,8.60
2018-12-18T08:17:50.714Z,8.73
2018-12-18T08:20:19.551Z,8.86
2018-12-18T08:22:48.302Z,8.87
2018-12-18T08:25:17.110Z,8.83
2018-12-18T08:27:46.249Z,8.82
2018-12-18T08:30:15.207Z,8.79
2018-12-18T08:32:43.925Z,8.81
2018-12-18T08:35:12.817Z,8.88
2018-12-18T08:37:41.535Z,8.98
2018-12-18T08:40:10.460Z,9.06
2018-12-18T08:42:39.350Z,8.98
2018-12-18T08:45:09.593Z,9.07
2018-12-18T08:47:38.386Z,9.13
2018-12-18T08:50:08.450Z,9.06
2018-12-18T08:52:37.268Z,9.06
2018-12-18T08:55:07.275Z,9.10
2018-12-18T08:57:36.569Z,9.13
2018-12-18T09:00:07.725Z,9.11
2018-12-18T09:02:36.447Z,9.18
2018-12-18T09:05:05.993Z,9.18
2018-12-18T09:07:34.709Z,9.22
2018-12-18T09:10:03.565Z,9.15
2018-12-18T09:12:32.461Z,9.26
2018-12-18T09:15:03.262Z,9.24
2018-12-18T09:17:37.287Z,9.21
2018-12-18T09:20:06.864Z,9.28
2018-12-18T09:22:36.520Z,9.34
2018-12-18T09:25:06.019Z,9.26
2018-12-18T09:27:34.704Z,9.23
2018-12-18T09:30:03.746Z,9.30
2018-12-18T09:32:32.713Z,9.30
2018-12-18T09:35:01.414Z,9.37
2018-12-18T09:37:30.232Z,9.39
2018-12-18T09:39:59.493Z,9.37
2018-12-18T09:42:33.334Z,9.33
2018-12-18T09:45:02.334Z,9.34
2018-12-18T09:47:31.118Z,9.40
2018-12-18T09:49:59.803Z,9.44
2018-12-18T09:52:28.620Z,9.42
2018-12-18T09:54:57.480Z,9.43
2018-12-18T09:57:31.324Z,9.46
2018-12-18T10:00:00.207Z,9.43
2018-12-18T10:02:29.066Z,9.46
2018-12-18T10:04:58.409Z,9.34
2018-12-18T10:07:27.357Z,9.35
2018-12-18T10:10:04.901Z,9.26
2018-12-18T10:12:38.786Z,9.30
2018-12-18T10:15:07.933Z,9.27
2018-12-18T10:17:36.574Z,9.26
2018-12-18T10:20:05.670Z,9.24
2018-12-18T10:22:34.455Z,9.28
2018-12-18T10:25:03.347Z,9.32
2018-12-18T10:27:32.131Z,9.29
2018-12-18T10:30:01.002Z,9.36
2018-12-18T10:32:29.715Z,9.37
2018-12-18T10:34:58.474Z,9.37
2018-12-18T10:37:27.388Z,9.37
2018-12-18T10:39:56.163Z,9.44
2018-12-18T10:42:24.970Z,9.41
2018-12-18T10:44:53.863Z,9.43
2018-12-18T10:47:22.653Z,9.47
2018-12-18T10:49:51.293Z,9.49
2018-12-18T10:52:20.045Z,9.49
2018-12-18T10:54:48.773Z,9.46
2018-12-18T10:57:17.489Z,9.44
2018-12-18T10:59:46.528Z,9.55
2018-12-18T11:02:15.200Z,9.60
2018-12-18T11:04:43.956Z,9.64
2018-12-18T11:07:12.958Z,9.62
2018-12-18T11:09:41.683Z,9.56
2018-12-18T11:12:10.497Z,9.60
2018-12-18T11:14:39.322Z,9.63
2018-12-18T11:17:08.018Z,9.62
2018-12-18T11:19:36.740Z,9.58
2018-12-18T11:22:05.665Z,9.71
2018-12-18T11:24:34.395Z,9.52
2018-12-18T11:27:03.121Z,9.62
2018-12-18T11:29:31.925Z,9.71
2018-12-18T11:32:00.655Z,9.84
2018-12-18T11:34:29.327Z,9.92
2018-12-18T11:36:58.416Z,9.90
2018-12-18T11:39:27.203Z,9.85
2018-12-18T11:41:55.932Z,9.73
2018-12-18T11:44:24.790Z,9.68
2018-12-18T11:46:53.550Z,9.70
2018-12-18T11:49:22.602Z,9.80
2018-12-18T11:51:51.285Z,9.67
2018-12-18T11:54:19.956Z,9.72
2018-12-18T11:56:48.651Z,9.75
2018-12-18T11:59:17.444Z,9.81
2018-12-18T12:01:46.153Z,9.80
2018-12-18T12:04:14.817Z,9.80
2018-12-18T12:06:43.884Z,9.71
2018-12-18T12:09:12.621Z,9.87
2018-12-18T12:11:41.263Z,9.98
2018-12-18T12:14:10.064Z,10.05
2018-12-18T12:16:38.837Z,10.07
2018-12-18T12:19:07.539Z,10.03
2018-12-18T12:21:36.726Z,10.05
2018-12-18T12:24:05.465Z,9.99
2018-12-18T12:26:35.166Z,9.79
2018-12-18T12:29:03.949Z,9.88
2018-12-18T12:31:32.641Z,9.84
2018-12-18T12:34:01.335Z,9.68
2018-12-18T12:36:30.077Z,9.58
2018-12-18T12:38:58.824Z,9.51
2018-12-18T12:41:27.643Z,9.58
2018-12-18T12:43:56.374Z,9.63
2018-12-18T12:46:25.115Z,9.55
2018-12-18T12:48:55.562Z,9.49
2018-12-18T12:51:24.773Z,9.49
2018-12-18T12:53:53.677Z,9.56
2018-12-18T12:56:22.882Z,9.54
2018-12-18T12:58:51.717Z,9.55
2018-12-18T13:01:20.404Z,9.63
2018-12-18T13:03:49.251Z,9.61
2018-12-18T13:06:18.320Z,9.57
2018-12-18T13:08:47.129Z,9.60
2018-12-18T13:11:17.051Z,9.50
2018-12-18T13:13:48.954Z,9.61
2018-12-18T13:16:20.722Z,9.61
2018-12-18T13:18:49.916Z,9.59
2018-12-18T13:21:18.625Z,9.54
2018-12-18T13:23:47.307Z,9.48
2018-12-18T13:26:18.223Z,9.39
2018-12-18T13:28:46.931Z,9.40
2018-12-18T13:31:15.763Z,9.46
2018-12-18T13:33:44.801Z,9.49
2018-12-18T13:36:15.233Z,9.53
2018-12-18T13:38:44.240Z,9.47
2018-12-18T13:41:13.309Z,9.49
2018-12-18T13:43:41.995Z,9.55
2018-12-18T13:46:14.986Z,9.47
2018-12-18T13:48:41.667Z,9.39
2018-12-18T13:51:10.471Z,9.41
2018-12-18T13:53:39.550Z,9.42
2018-12-18T13:56:08.452Z,9.40
2018-12-18T13:58:37.178Z,9.41
2018-12-18T14:01:07.382Z,9.36
2018-12-18T14:03:37.240Z,9.40
2018-12-18T14:06:06.892Z,9.34
2018-12-18T14:08:35.629Z,9.37
2018-12-18T14:11:04.523Z,9.31
2018-12-18T14:13:33.398Z,9.18
2018-12-18T14:16:02.077Z,9.18
2018-12-18T14:18:31.673Z,9.15
2018-12-18T14:21:00.562Z,9.14
2018-12-18T14:23:29.275Z,9.19
2018-12-18T14:25:58.443Z,9.20
2018-12-18T14:28:27.227Z,9.20
2018-12-18T14:30:56.311Z,9.25
2018-12-18T14:33:25.048Z,9.17
2018-12-18T14:35:53.803Z,9.16
2018-12-18T14:38:22.538Z,9.17
2018-12-18T14:40:51.377Z,9.16
2018-12-18T14:43:20.272Z,9.16
2018-12-18T14:45:48.983Z,9.21
2018-12-18T14:48:17.744Z,9.25
2018-12-18T14:50:46.430Z,9.20
2018-12-18T14:53:15.196Z,9.13
2018-12-18T14:55:44.166Z,9.13
2018-12-18T14:58:12.900Z,9.21
2018-12-18T15:00:41.730Z,9.26
2018-12-18T15:03:10.436Z,9.22
2018-12-18T15:05:39.122Z,9.22
2018-12-18T15:08:07.824Z,9.21
2018-12-18T15:10:37.053Z,9.16
2018-12-18T15:13:05.975Z,9.10
2018-12-18T15:15:34.620Z,9.15
2018-12-18T15:18:03.413Z,9.08
2018-12-18T15:20:32.091Z,9.00
2018-12-18T15:23:00.780Z,8.96
2018-12-18T15:25:31.110Z,9.00
2018-12-18T15:27:59.770Z,8.99
2018-12-18T15:30:28.864Z,8.94
2018-12-18T15:32:57.722Z,8.86
2018-12-18T15:35:27.493Z,8.88
2018-12-18T15:37:56.203Z,8.83
2018-12-18T15:40:25.102Z,8.80
2018-12-18T15:42:53.837Z,8.89
2018-12-18T15:45:22.638Z,8.81
2018-12-18T15:47:51.436Z,8.81
2018-12-18T15:50:20.148Z,8.84
2018-12-18T15:52:48.872Z,8.78
2018-12-18T15:55:17.640Z,8.80
2018-12-18T15:57:46.388Z,8.83
2018-12-18T16:00:15.216Z,8.77
2018-12-18T16:02:44.000Z,8.74
2018-12-18T16:05:12.777Z,8.82
2018-12-18T16:07:41.536Z,8.71
2018-12-18T16:10:10.458Z,8.74
2018-12-18T16:12:39.119Z,8.79
2018-12-18T16:15:08.567Z,8.81
2018-12-18T16:17:37.508Z,8.90
2018-12-18T16:20:07.686Z,8.76
2018-12-18T16:22:37.136Z,8.75
2018-12-18T16:25:06.171Z,8.69
2018-12-18T16:27:34.950Z,8.78
2018-12-18T16:30:03.910Z,8.69
2018-12-18T16:32:32.723Z,8.66
2018-12-18T16:35:01.493Z,8.57
2018-12-18T16:37:30.842Z,8.56
2018-12-18T16:39:59.800Z,8.59
2018-12-18T16:42:28.579Z,8.58
2018-12-18T16:44:57.503Z,8.62
2018-12-18T16:47:26.393Z,8.59
2018-12-18T16:49:55.227Z,8.54
2018-12-18T16:52:24.105Z,8.52
2018-12-18T16:54:52.961Z,8.44
2018-12-18T16:57:21.754Z,8.47
2018-12-18T16:59:50.484Z,8.29
2018-12-18T17:02:19.330Z,8.23
2018-12-18T17:04:48.120Z,8.22
2018-12-18T17:07:16.872Z,8.07
2018-12-18T17:09:45.667Z,8.00
2018-12-18T17:12:14.380Z,7.89
2018-12-18T17:14:43.113Z,7.87
2018-12-18T17:17:11.854Z,7.83
2018-12-18T17:19:40.581Z,7.87
2018-12-18T17:22:09.349Z,7.79
2018-12-18T17:24:38.261Z,7.73
2018-12-18T17:27:07.110Z,7.72
2018-12-18T17:29:35.768Z,7.72
2018-12-18T17:32:04.586Z,7.61
2018-12-18T17:34:33.311Z,7.51
2018-12-18T17:37:01.959Z,7.50
2018-12-18T17:39:30.736Z,7.44
2018-12-18T17:41:59.451Z,7.45
2018-12-18T17:44:28.270Z,7.39
2018-12-18T17:46:57.087Z,7.40
2018-12-18T17:49:25.999Z,7.32
2018-12-18T17:51:55.033Z,7.35
2018-12-18T17:54:24.084Z,7.34
2018-12-18T17:56:52.857Z,7.32
2018-12-18T17:59:21.658Z,7.27
2018-12-18T18:01:50.488Z,7.34
2018-12-18T18:04:19.355Z,7.27
2018-12-18T18:06:48.233Z,7.21
2018-12-18T18:09:17.139Z,7.17
2018-12-18T18:11:45.895Z,7.15
2018-12-18T18:14:14.914Z,7.01
2018-12-18T18:16:43.813Z,6.98
2018-12-18T18:19:12.631Z,6.94
2018-12-18T18:21:41.387Z,6.95
2018-12-18T18:24:10.245Z,6.86
2018-12-18T18:26:39.258Z,6.89
2018-12-18T18:29:08.192Z,6.87
2018-12-18T18:31:37.454Z,6.83
2018-12-18T18:34:07.196Z,6.79
2018-12-18T18:36:35.955Z,6.63
2018-12-18T18:39:07.495Z,6.58
2018-12-18T18:41:37.420Z,6.59
2018-12-18T18:44:07.256Z,6.64
2018-12-18T18:46:36.428Z,6.60
2018-12-18T18:49:05.216Z,6.57
2018-12-18T18:51:34.005Z,6.57
2018-12-18T18:54:02.971Z,6.51
2018-12-18T18:56:31.735Z,6.54
2018-12-18T18:59:00.557Z,6.49
2018-12-18T19:01:29.397Z,6.51
2018-12-18T19:03:58.096Z,6.46
2018-12-18T19:06:26.939Z,6.85
2018-12-18T19:08:55.833Z,6.75
2018-12-18T19:11:24.525Z,6.67
2018-12-18T19:13:53.413Z,6.57
2018-12-18T19:16:22.532Z,6.46
2018-12-18T19:18:51.352Z,6.39
2018-12-18T19:21:20.066Z,6.33
2018-12-18T19:23:48.976Z,6.25
2018-12-18T19:26:17.674Z,6.22
2018-12-18T19:28:50.240Z,6.20
2018-12-18T19:31:17.215Z,6.19
2018-12-18T19:33:45.949Z,6.16
2018-12-18T19:36:14.673Z,6.10
2018-12-18T19:38:43.492Z,6.05
2018-12-18T19:41:12.241Z,6.07
2018-12-18T19:43:40.979Z,6.07
2018-12-18T19:46:09.897Z,6.08
2018-12-18T19:48:38.948Z,6.10
2018-12-18T19:51:07.761Z,6.07
2018-12-18T19:53:37.927Z,6.10
2018-12-18T19:56:07.307Z,6.10
2018-12-18T19:58:36.126Z,6.12
2018-12-18T20:01:05.125Z,6.15
2018-12-18T20:03:33.873Z,6.07
2018-12-18T20:06:02.595Z,6.01
2018-12-18T20:08:32.283Z,5.98
2018-12-18T20:11:01.546Z,5.92
2018-12-18T20:13:30.516Z,5.92
2018-12-18T20:15:59.330Z,5.99
2018-12-18T20:18:28.127Z,5.92
2018-12-18T20:20:56.966Z,5.89
2018-12-18T20:23:25.768Z,5.95
2018-12-18T20:25:55.090Z,5.95
2018-12-18T20:28:25.787Z,5.92
2018-12-18T20:30:54.800Z,5.88
2018-12-18T20:33:23.589Z,5.81
2018-12-18T20:35:52.354Z,5.83
2018-12-18T20:38:21.214Z,5.88
2018-12-18T20:40:49.973Z,5.92
2018-12-18T20:43:18.759Z,5.92
2018-12-18T20:45:47.603Z,5.73
2018-12-18T20:48:16.316Z,5.59
2018-12-18T20:50:45.103Z,5.48
2018-12-18T20:53:14.044Z,5.53
2018-12-18T20:55:42.992Z,5.50
2018-12-18T20:58:11.698Z,5.48
2018-12-18T21:00:40.466Z,5.49
2018-12-18T21:03:09.255Z,5.54
2018-12-18T21:05:37.939Z,5.43
2018-12-18T21:08:07.569Z,5.38
2018-12-18T21:10:37.392Z,5.38
2018-12-18T21:13:40.466Z,5.39
2018-12-18T21:16:09.581Z,5.38
2018-12-18T21:18:38.437Z,5.36
2018-12-18T21:21:07.613Z,5.30
2018-12-18T21:23:37.590Z,5.28
2018-12-18T21:26:07.474Z,5.26
2018-12-18T21:28:36.362Z,5.36
2018-12-18T21:31:05.162Z,5.24
2018-12-18T21:33:33.920Z,5.25
2018-12-18T21:36:02.909Z,5.25
2018-12-18T21:38:31.661Z,5.28
2018-12-18T21:41:00.622Z,5.34
2018-12-18T21:43:29.497Z,5.28
2018-12-18T21:45:58.229Z,5.31
2018-12-18T21:48:27.035Z,5.34
2018-12-18T21:50:55.844Z,5.33
2018-12-18T21:53:24.691Z,5.33
2018-12-18T21:55:53.517Z,5.26
2018-12-18T21:58:22.337Z,5.26
2018-12-18T22:00:51.023Z,5.25
2018-12-18T22:03:19.685Z,5.21
2018-12-18T22:05:48.744Z,5.24
2018-12-18T22:08:17.700Z,5.23
2018-12-18T22:10:46.663Z,5.27
2018-12-18T22:13:15.761Z,5.34
2018-12-18T22:15:44.600Z,5.37
2018-12-18T22:18:13.432Z,5.31
2018-12-18T22:20:42.174Z,5.38
2018-12-18T22:23:10.923Z,5.38
2018-12-18T22:25:39.590Z,5.44
2018-12-18T22:28:08.461Z,5.46
2018-12-18T22:30:37.579Z,5.50
2018-12-18T22:33:06.369Z,5.52
2018-12-18T22:35:35.284Z,5.53
2018-12-18T22:38:04.001Z,5.57
2018-12-18T22:40:32.761Z,5.59
2018-12-18T22:43:01.652Z,5.51
2018-12-18T22:45:30.335Z,5.47
2018-12-18T22:47:59.055Z,5.41
2018-12-18T22:50:27.812Z,5.42
2018-12-18T22:52:56.550Z,5.40
2018-12-18T22:55:25.242Z,5.31
2018-12-18T22:57:54.103Z,5.33
2018-12-18T23:00:28.087Z,5.26
2018-12-18T23:02:56.870Z,5.23
2018-12-18T23:05:25.613Z,5.27
2018-12-18T23:07:54.300Z,5.36
2018-12-18T23:10:23.060Z,5.34
2018-12-18T23:12:51.778Z,5.36
2018-12-18T23:15:20.483Z,5.33
2018-12-18T23:17:49.307Z,5.26
2018-12-18T23:20:18.005Z,5.33
2018-12-18T23:22:46.816Z,5.26
2018-12-18T23:25:15.652Z,5.24
2018-12-18T23:27:44.340Z,5.17
2018-12-18T23:30:13.182Z,5.17
2018-12-18T23:32:41.914Z,5.13
2018-12-18T23:35:10.809Z,5.04
2018-12-18T23:37:39.546Z,4.95
2018-12-18T23:40:08.684Z,4.93
2018-12-18T23:42:37.640Z,4.79
2018-12-18T23:45:06.668Z,4.80
2018-12-18T23:47:35.425Z,4.71
2018-12-18T23:50:04.514Z,4.69
2018-12-18T23:52:33.351Z,4.65
2018-12-18T23:55:02.169Z,4.59
2018-12-18T23:57:30.915Z,4.65
2018-12-18T23:59:59.678Z,4.59
